createdAt,value
2023-04-09T00:00:52.998Z,3.04
2023-04-09T00:03:41.436Z,3.04
2023-04-09T00:06:25.899Z,3.07
2023-04-09T00:09:01.073Z,3.13
2023-04-09T00:11:41.504Z,3.16
2023-04-09T00:14:27.695Z,3.15
2023-04-09T00:17:08.417Z,3.12
2023-04-09T00:19:49.217Z,3.16
2023-04-09T00:22:38.134Z,3.18
2023-04-09T00:25:10.924Z,3.20
2023-04-09T00:27:48.029Z,3.22
2023-04-09T00:30:32.048Z,3.17
2023-04-09T00:33:10.896Z,3.16
2023-04-09T00:35:53.504Z,3.16
2023-04-09T00:38:33.225Z,3.05
2023-04-09T00:41:19.322Z,3.01
2023-04-09T00:43:57.722Z,2.95
2023-04-09T00:46:37.109Z,2.94
2023-04-09T00:49:26.512Z,2.91
2023-04-09T00:52:07.007Z,2.90
2023-04-09T00:54:45.103Z,2.89
2023-04-09T00:57:28.865Z,2.92
2023-04-09T01:00:01.876Z,2.91
2023-04-09T01:02:52.020Z,2.92
2023-04-09T01:05:47.571Z,2.95
2023-04-09T01:08:55.868Z,2.94
2023-04-09T01:12:12.429Z,2.95
2023-04-09T01:15:08.592Z,2.98
2023-04-09T01:17:56.580Z,2.96
2023-04-09T01:20:41.311Z,3.07
2023-04-09T01:23:45.619Z,3.04
2023-04-09T01:26:37.738Z,3.01
2023-04-09T01:29:16.640Z,3.05
2023-04-09T01:31:58.100Z,3.03
2023-04-09T01:34:39.125Z,3.00
2023-04-09T01:37:20.725Z,3.01
2023-04-09T01:39:56.699Z,3.02
2023-04-09T01:42:35.114Z,3.02
2023-04-09T01:45:16.060Z,3.02
2023-04-09T01:47:54.522Z,3.04
2023-04-09T01:50:33.110Z,3.07
2023-04-09T01:53:24.859Z,3.09
2023-04-09T01:56:12.053Z,3.04
2023-04-09T01:58:47.214Z,3.05
2023-04-09T02:02:09.226Z,3.03
2023-04-09T02:04:55.318Z,2.97
2023-04-09T02:07:52.608Z,3.02
2023-04-09T02:10:37.122Z,3.17
2023-04-09T02:13:18.490Z,3.08
2023-04-09T02:16:01.084Z,3.14
2023-04-09T02:18:44.521Z,3.14
2023-04-09T02:21:22.747Z,3.16
2023-04-09T02:24:02.392Z,3.17
2023-04-09T02:26:43.332Z,3.17
2023-04-09T02:29:20.888Z,3.29
2023-04-09T02:32:01.615Z,3.26
2023-04-09T02:34:43.073Z,3.30
2023-04-09T02:37:26.888Z,3.32
2023-04-09T02:40:15.550Z,3.26
2023-04-09T02:42:58.112Z,3.27
2023-04-09T02:45:36.510Z,3.23
2023-04-09T02:48:22.851Z,3.27
2023-04-09T02:51:01.574Z,3.29
2023-04-09T02:53:39.278Z,3.28
2023-04-09T02:56:19.289Z,3.54
2023-04-09T02:59:00.621Z,3.47
2023-04-09T03:01:41.556Z,3.43
2023-04-09T03:04:23.980Z,3.40
2023-04-09T03:07:01.812Z,3.43
2023-04-09T03:09:37.712Z,3.57
2023-04-09T03:12:22.637Z,3.54
2023-04-09T03:15:00.284Z,3.50
2023-04-09T03:17:59.200Z,3.51
2023-04-09T03:20:32.524Z,3.53
2023-04-09T03:23:16.918Z,3.51
2023-04-09T03:26:06.343Z,3.53
2023-04-09T03:29:01.716Z,3.54
2023-04-09T03:31:40.176Z,3.65
2023-04-09T03:34:27.772Z,3.58
2023-04-09T03:37:08.182Z,3.61
2023-04-09T03:39:49.534Z,3.58
2023-04-09T03:42:28.995Z,3.65
2023-04-09T03:45:10.024Z,3.70
2023-04-09T03:47:50.498Z,3.67
2023-04-09T03:50:35.655Z,3.72
2023-04-09T03:53:14.736Z,3.52
2023-04-09T03:56:01.737Z,3.49
2023-04-09T03:58:43.036Z,3.53
2023-04-09T04:01:39.068Z,3.60
2023-04-09T04:04:17.519Z,3.61
2023-04-09T04:07:09.040Z,3.56
2023-04-09T04:09:57.584Z,3.45
2023-04-09T04:12:34.344Z,3.59
2023-04-09T04:15:24.529Z,3.64
2023-04-09T04:18:11.868Z,3.69
2023-04-09T04:20:59.047Z,3.67
2023-04-09T04:23:36.787Z,3.75
2023-04-09T04:26:27.507Z,3.75
2023-04-09T04:29:08.228Z,3.73
2023-04-09T04:31:59.687Z,3.82
2023-04-09T04:34:40.789Z,3.83
2023-04-09T04:37:31.019Z,3.75
2023-04-09T04:40:18.412Z,3.77
2023-04-09T04:43:04.709Z,3.84
2023-04-09T04:45:48.431Z,3.79
2023-04-09T04:48:26.187Z,3.89
2023-04-09T04:51:10.896Z,3.94
2023-04-09T04:53:56.422Z,3.86
2023-04-09T04:56:47.304Z,3.79
2023-04-09T04:59:43.433Z,3.79
2023-04-09T05:02:27.836Z,3.74
2023-04-09T05:05:32.160Z,3.89
2023-04-09T05:08:14.435Z,3.97
2023-04-09T05:10:56.176Z,4.02
2023-04-09T05:13:53.864Z,4.02
2023-04-09T05:16:35.325Z,4.02
2023-04-09T05:19:21.147Z,4.00
2023-04-09T05:21:58.890Z,3.93
2023-04-09T05:24:40.158Z,4.05
2023-04-09T05:27:26.087Z,4.05
2023-04-09T05:30:14.594Z,4.26
2023-04-09T05:33:01.627Z,4.30
2023-04-09T05:35:49.670Z,4.31
2023-04-09T05:38:35.248Z,4.38
2023-04-09T05:41:19.373Z,4.47
2023-04-09T05:44:20.292Z,4.48
2023-04-09T05:47:05.316Z,4.62
2023-04-09T05:49:56.554Z,4.64
2023-04-09T05:52:40.431Z,4.73
2023-04-09T05:55:26.577Z,4.76
2023-04-09T05:58:15.619Z,4.75
2023-04-09T06:00:57.029Z,4.74
2023-04-09T06:03:37.617Z,4.76
2023-04-09T06:06:21.720Z,4.74
2023-04-09T06:09:03.744Z,4.83
2023-04-09T06:11:41.637Z,4.81
2023-04-09T06:14:33.823Z,4.98
2023-04-09T06:17:29.572Z,5.09
2023-04-09T06:20:11.256Z,5.14
2023-04-09T06:23:00.504Z,4.87
2023-04-09T06:25:41.714Z,4.85
2023-04-09T06:28:24.863Z,4.70
2023-04-09T06:31:07.648Z,5.00
2023-04-09T06:34:02.452Z,5.16
2023-04-09T06:36:40.500Z,5.27
2023-04-09T06:39:32.267Z,5.50
2023-04-09T06:42:21.642Z,5.55
2023-04-09T06:45:12.028Z,5.56
2023-04-09T06:47:58.296Z,5.46
2023-04-09T06:50:41.430Z,5.56
2023-04-09T06:53:35.898Z,5.58
2023-04-09T06:56:10.598Z,5.67
2023-04-09T06:58:53.331Z,5.82
2023-04-09T07:01:41.703Z,5.70
2023-04-09T07:04:32.547Z,5.68
2023-04-09T07:07:08.279Z,5.76
2023-04-09T07:09:52.281Z,5.76
2023-04-09T07:12:43.372Z,5.69
2023-04-09T07:15:30.375Z,5.81
2023-04-09T07:18:12.053Z,5.75
2023-04-09T07:20:59.504Z,5.77
2023-04-09T07:23:42.343Z,6.09
2023-04-09T07:26:34.227Z,6.10
2023-04-09T07:29:23.600Z,6.06
2023-04-09T07:32:14.610Z,6.07
2023-04-09T07:34:55.462Z,6.07
2023-04-09T07:37:41.183Z,6.02
2023-04-09T07:40:25.221Z,6.06
2023-04-09T07:43:05.489Z,6.03
2023-04-09T07:45:49.348Z,6.15
2023-04-09T07:48:31.287Z,6.28
2023-04-09T07:51:15.793Z,6.34
2023-04-09T07:54:02.428Z,6.44
2023-04-09T07:56:48.915Z,6.33
2023-04-09T07:59:29.691Z,6.58
2023-04-09T08:02:16.001Z,6.54
2023-04-09T08:04:52.255Z,6.77
2023-04-09T08:07:33.050Z,7.05
2023-04-09T08:10:18.279Z,7.11
2023-04-09T08:13:01.526Z,7.13
2023-04-09T08:15:47.564Z,7.03
2023-04-09T08:18:44.135Z,6.99
2023-04-09T08:21:24.456Z,7.31
2023-04-09T08:24:10.590Z,7.27
2023-04-09T08:27:03.437Z,7.24
2023-04-09T08:29:45.673Z,7.30
2023-04-09T08:32:34.161Z,7.53
2023-04-09T08:35:12.016Z,7.39
2023-04-09T08:37:55.636Z,7.68
2023-04-09T08:40:40.022Z,7.78
2023-04-09T08:43:37.280Z,7.74
2023-04-09T08:46:27.420Z,7.85
2023-04-09T08:49:14.480Z,7.83
2023-04-09T08:51:57.608Z,7.94
2023-04-09T08:54:52.021Z,8.02
2023-04-09T08:57:38.978Z,8.16
2023-04-09T09:00:21.940Z,7.97
2023-04-09T09:03:32.740Z,8.14
2023-04-09T09:06:24.174Z,8.08
2023-04-09T09:09:20.890Z,8.14
2023-04-09T09:12:02.466Z,8.11
2023-04-09T09:14:40.178Z,8.20
2023-04-09T09:17:21.506Z,8.19
2023-04-09T09:20:01.427Z,8.29
2023-04-09T09:22:56.765Z,8.44
2023-04-09T09:25:45.242Z,8.64
2023-04-09T09:28:29.811Z,8.79
2023-04-09T09:31:22.428Z,8.33
2023-04-09T09:34:20.208Z,8.43
2023-04-09T09:37:26.877Z,8.69
2023-04-09T09:40:10.244Z,9.01
2023-04-09T09:43:13.467Z,9.18
2023-04-09T09:45:59.412Z,9.12
2023-04-09T09:48:49.789Z,9.25
2023-04-09T09:51:40.186Z,9.57
2023-04-09T09:54:18.498Z,9.51
2023-04-09T09:57:03.442Z,9.62
2023-04-09T09:59:50.426Z,9.70
2023-04-09T10:02:41.329Z,9.92
2023-04-09T10:05:39.258Z,9.52
2023-04-09T10:08:24.093Z,9.30
2023-04-09T10:11:12.965Z,9.67
2023-04-09T10:14:02.032Z,9.64
2023-04-09T10:16:46.306Z,9.98
2023-04-09T10:19:27.225Z,9.54
2023-04-09T10:22:13.451Z,9.82
2023-04-09T10:25:03.123Z,9.67
2023-04-09T10:27:46.262Z,9.98
2023-04-09T10:30:47.040Z,10.12
2023-04-09T10:33:36.304Z,10.01
2023-04-09T10:36:24.500Z,10.17
2023-04-09T10:39:02.421Z,10.18
2023-04-09T10:41:50.401Z,9.89
2023-04-09T10:44:47.381Z,9.99
2023-04-09T10:47:39.977Z,10.09
2023-04-09T10:50:57.606Z,10.19
2023-04-09T10:53:42.774Z,10.03
2023-04-09T10:56:26.868Z,10.08
2023-04-09T10:59:15.614Z,10.02
2023-04-09T11:02:01.973Z,10.17
2023-04-09T11:05:17.957Z,10.15
2023-04-09T11:08:21.006Z,10.06
2023-04-09T11:11:04.429Z,10.30
2023-04-09T11:13:46.812Z,10.54
2023-04-09T11:16:37.585Z,11.07
2023-04-09T11:19:19.259Z,11.42
2023-04-09T11:22:07.724Z,11.39
2023-04-09T11:25:00.143Z,11.47
2023-04-09T11:28:05.457Z,11.71
2023-04-09T11:30:43.767Z,12.03
2023-04-09T11:33:30.411Z,11.92
2023-04-09T11:36:11.288Z,12.34
2023-04-09T11:39:00.600Z,12.62
2023-04-09T11:41:45.357Z,12.70
2023-04-09T11:44:42.185Z,12.88
2023-04-09T11:47:26.269Z,12.55
2023-04-09T11:50:13.419Z,12.51
2023-04-09T11:52:56.057Z,12.73
2023-04-09T11:55:36.775Z,12.86
2023-04-09T11:58:38.298Z,12.48
2023-04-09T12:01:24.311Z,12.22
2023-04-09T12:04:08.136Z,12.45
2023-04-09T12:06:50.460Z,13.04
2023-04-09T12:09:37.093Z,13.16
2023-04-09T12:12:32.604Z,12.91
2023-04-09T12:15:23.887Z,12.73
2023-04-09T12:18:07.437Z,12.68
2023-04-09T12:20:50.604Z,12.71
2023-04-09T12:23:36.649Z,12.96
2023-04-09T12:26:28.047Z,12.96
2023-04-09T12:29:24.582Z,13.15
2023-04-09T12:32:11.436Z,12.86
2023-04-09T12:35:03.430Z,12.36
2023-04-09T12:37:52.579Z,12.47
2023-04-09T12:40:51.622Z,12.38
2023-04-09T12:43:39.181Z,12.12
2023-04-09T12:46:23.120Z,12.15
2023-04-09T12:49:07.075Z,11.95
2023-04-09T12:51:52.728Z,12.13
2023-04-09T12:54:35.134Z,12.59
2023-04-09T12:57:21.363Z,12.66
2023-04-09T13:00:09.207Z,11.98
2023-04-09T13:03:09.511Z,12.68
2023-04-09T13:05:54.593Z,12.56
2023-04-09T13:08:49.390Z,12.87
2023-04-09T13:11:24.631Z,13.90
2023-04-09T13:14:14.475Z,14.65
2023-04-09T13:17:02.916Z,15.04
2023-04-09T13:19:46.757Z,14.69
2023-04-09T13:22:39.418Z,15.38
2023-04-09T13:25:19.879Z,15.05
2023-04-09T13:28:03.194Z,14.65
2023-04-09T13:30:54.652Z,14.25
2023-04-09T13:33:50.832Z,13.95
2023-04-09T13:36:35.296Z,13.58
2023-04-09T13:39:10.454Z,13.60
2023-04-09T13:41:56.476Z,13.40
2023-04-09T13:44:52.654Z,12.58
2023-04-09T13:47:36.741Z,12.22
2023-04-09T13:50:28.299Z,12.20
2023-04-09T13:53:06.771Z,12.00
2023-04-09T13:56:07.775Z,11.94
2023-04-09T13:58:45.572Z,12.10
2023-04-09T14:01:35.811Z,12.06
2023-04-09T14:04:22.492Z,12.02
2023-04-09T14:07:04.422Z,12.04
2023-04-09T14:09:46.981Z,12.00
2023-04-09T14:12:28.438Z,11.72
2023-04-09T14:15:07.011Z,11.84
2023-04-09T14:17:58.566Z,11.61
2023-04-09T14:20:45.445Z,11.55
2023-04-09T14:23:28.937Z,11.65
2023-04-09T14:26:14.589Z,11.52
2023-04-09T14:28:48.462Z,11.33
2023-04-09T14:31:31.690Z,11.28
2023-04-09T14:34:17.932Z,11.42
2023-04-09T14:36:59.512Z,11.55
2023-04-09T14:39:54.382Z,11.76
2023-04-09T14:42:40.065Z,11.91
2023-04-09T14:45:23.505Z,11.87
2023-04-09T14:48:12.444Z,12.41
2023-04-09T14:50:58.406Z,12.67
2023-04-09T14:53:47.591Z,13.19
2023-04-09T14:56:34.310Z,12.75
2023-04-09T14:59:16.939Z,12.28
2023-04-09T15:02:03.338Z,11.99
2023-04-09T15:04:48.182Z,11.94
2023-04-09T15:07:29.067Z,11.84
2023-04-09T15:10:15.897Z,11.92
2023-04-09T15:12:54.303Z,11.22
2023-04-09T15:15:45.582Z,11.14
2023-04-09T15:18:26.188Z,11.06
2023-04-09T15:21:11.761Z,10.89
2023-04-09T15:23:58.336Z,10.75
2023-04-09T15:26:45.201Z,10.68
2023-04-09T15:29:30.194Z,10.49
2023-04-09T15:32:10.604Z,10.69
2023-04-09T15:34:59.120Z,10.64
2023-04-09T15:37:40.393Z,10.61
2023-04-09T15:40:32.003Z,10.33
2023-04-09T15:43:17.427Z,10.42
2023-04-09T15:45:55.615Z,10.35
2023-04-09T15:48:41.288Z,10.30
2023-04-09T15:51:30.062Z,9.94
2023-04-09T15:54:11.000Z,9.73
2023-04-09T15:56:46.503Z,9.81
2023-04-09T15:59:42.795Z,9.59
2023-04-09T16:02:25.888Z,9.65
2023-04-09T16:05:09.607Z,9.66
2023-04-09T16:08:03.663Z,9.78
2023-04-09T16:10:44.886Z,9.70
2023-04-09T16:13:30.640Z,9.67
2023-04-09T16:16:14.507Z,9.61
2023-04-09T16:18:56.428Z,9.49
2023-04-09T16:21:35.424Z,9.52
2023-04-09T16:24:14.394Z,9.59
2023-04-09T16:27:06.484Z,9.51
2023-04-09T16:29:51.423Z,9.45
2023-04-09T16:32:39.363Z,9.53
2023-04-09T16:35:24.892Z,9.56
2023-04-09T16:38:08.010Z,9.49
2023-04-09T16:40:48.863Z,9.48
2023-04-09T16:43:32.692Z,9.56
2023-04-09T16:46:19.553Z,9.41
2023-04-09T16:49:00.978Z,9.34
2023-04-09T16:51:54.827Z,9.26
2023-04-09T16:54:35.939Z,9.21
2023-04-09T16:57:13.880Z,9.08
2023-04-09T17:00:00.103Z,9.06
2023-04-09T17:02:45.965Z,8.82
2023-04-09T17:05:37.946Z,8.86
2023-04-09T17:08:17.197Z,8.94
2023-04-09T17:11:02.458Z,8.90
2023-04-09T17:13:43.813Z,8.93
2023-04-09T17:16:27.715Z,8.92
2023-04-09T17:19:05.494Z,8.95
2023-04-09T17:21:54.459Z,8.77
2023-04-09T17:24:39.745Z,8.75
2023-04-09T17:27:20.443Z,8.72
2023-04-09T17:29:56.633Z,8.63
2023-04-09T17:32:48.450Z,8.53
2023-04-09T17:35:34.216Z,8.57
2023-04-09T17:38:21.325Z,8.56
2023-04-09T17:41:06.380Z,8.53
2023-04-09T17:43:51.884Z,8.56
2023-04-09T17:46:39.453Z,8.45
2023-04-09T17:49:22.484Z,8.40
2023-04-09T17:52:14.410Z,8.37
2023-04-09T17:54:53.421Z,8.39
2023-04-09T17:57:44.565Z,8.33
2023-04-09T18:00:26.166Z,8.24
2023-04-09T18:03:13.640Z,8.16
2023-04-09T18:06:00.684Z,8.21
2023-04-09T18:08:41.434Z,8.12
2023-04-09T18:11:30.721Z,8.03
2023-04-09T18:14:14.014Z,7.97
2023-04-09T18:17:07.894Z,7.93
2023-04-09T18:19:46.261Z,7.91
2023-04-09T18:22:33.486Z,7.86
2023-04-09T18:25:15.409Z,7.83
2023-04-09T18:27:59.103Z,7.72
2023-04-09T18:30:41.991Z,7.68
2023-04-09T18:33:20.198Z,7.71
2023-04-09T18:35:55.477Z,7.68
2023-04-09T18:38:39.530Z,7.63
2023-04-09T18:41:31.017Z,7.68
2023-04-09T18:44:18.467Z,7.62
2023-04-09T18:47:00.010Z,7.54
2023-04-09T18:49:46.801Z,7.53
2023-04-09T18:52:33.550Z,7.38
2023-04-09T18:55:15.783Z,7.30
2023-04-09T18:58:03.632Z,7.30
2023-04-09T19:00:50.877Z,7.27
2023-04-09T19:03:34.643Z,7.28
2023-04-09T19:06:31.168Z,7.15
2023-04-09T19:09:16.271Z,7.10
2023-04-09T19:11:55.261Z,7.03
2023-04-09T19:14:53.854Z,6.96
2023-04-09T19:17:34.137Z,6.97
2023-04-09T19:20:23.191Z,6.90
2023-04-09T19:23:18.334Z,6.82
2023-04-09T19:26:00.463Z,6.74
2023-04-09T19:28:39.196Z,6.63
2023-04-09T19:31:21.509Z,6.54
2023-04-09T19:34:11.448Z,6.38
2023-04-09T19:37:10.738Z,6.35
2023-04-09T19:39:54.463Z,6.26
2023-04-09T19:42:32.846Z,6.13
2023-04-09T19:45:15.407Z,6.08
2023-04-09T19:47:55.535Z,5.98
2023-04-09T19:50:43.681Z,5.79
2023-04-09T19:53:33.656Z,5.74
2023-04-09T19:56:17.402Z,5.48
2023-04-09T19:59:10.289Z,5.38
2023-04-09T20:01:59.584Z,5.33
2023-04-09T20:04:34.989Z,5.18
2023-04-09T20:07:20.638Z,5.09
2023-04-09T20:10:02.155Z,4.95
2023-04-09T20:12:48.451Z,4.85
2023-04-09T20:15:31.697Z,4.79
2023-04-09T20:18:23.523Z,4.75
2023-04-09T20:21:14.476Z,4.69
2023-04-09T20:23:50.475Z,4.52
2023-04-09T20:26:38.372Z,4.43
2023-04-09T20:29:16.044Z,4.40
2023-04-09T20:31:59.916Z,4.40
2023-04-09T20:34:40.706Z,4.21
2023-04-09T20:37:27.373Z,4.23
2023-04-09T20:40:14.338Z,4.09
2023-04-09T20:42:58.449Z,4.03
2023-04-09T20:45:41.258Z,3.92
2023-04-09T20:48:19.032Z,3.85
2023-04-09T20:51:05.330Z,3.82
2023-04-09T20:53:57.600Z,3.76
2023-04-09T20:56:36.452Z,3.73
2023-04-09T20:59:19.758Z,3.70
2023-04-09T21:01:59.504Z,3.58
2023-04-09T21:04:52.914Z,3.49
2023-04-09T21:07:39.242Z,3.43
2023-04-09T21:10:19.670Z,3.36
2023-04-09T21:13:12.865Z,3.36
2023-04-09T21:15:51.851Z,3.32
2023-04-09T21:18:36.087Z,3.28
2023-04-09T21:21:31.318Z,3.18
2023-04-09T21:24:12.617Z,3.13
2023-04-09T21:27:01.896Z,3.06
2023-04-09T21:29:58.966Z,3.01
2023-04-09T21:32:51.723Z,2.96
2023-04-09T21:35:29.632Z,2.94
2023-04-09T21:38:16.783Z,2.96
2023-04-09T21:40:56.254Z,2.86
2023-04-09T21:43:40.344Z,2.82
2023-04-09T21:46:26.744Z,2.58
2023-04-09T21:49:17.811Z,2.60
2023-04-09T21:51:55.822Z,2.63
2023-04-09T21:54:36.927Z,2.56
2023-04-09T21:57:20.411Z,2.47
2023-04-09T22:00:00.647Z,2.43
2023-04-09T22:02:49.583Z,2.36
2023-04-09T22:05:37.560Z,2.31
2023-04-09T22:08:22.043Z,2.30
2023-04-09T22:11:01.948Z,2.21
2023-04-09T22:13:45.220Z,2.15
2023-04-09T22:16:32.159Z,2.03
2023-04-09T22:19:13.028Z,2.04
2023-04-09T22:21:56.427Z,1.93
2023-04-09T22:24:39.826Z,1.86
2023-04-09T22:27:18.176Z,1.92
2023-04-09T22:30:01.251Z,1.89
2023-04-09T22:32:40.041Z,1.87
2023-04-09T22:35:28.164Z,1.82
2023-04-09T22:38:25.186Z,1.76
2023-04-09T22:41:16.045Z,1.72
2023-04-09T22:43:56.546Z,1.64
2023-04-09T22:46:40.236Z,1.64
2023-04-09T22:49:23.717Z,1.65
2023-04-09T22:52:15.175Z,1.63
2023-04-09T22:54:58.383Z,1.54
2023-04-09T22:57:44.486Z,1.54
2023-04-09T23:00:25.306Z,1.54
2023-04-09T23:03:15.258Z,1.47
2023-04-09T23:06:01.513Z,1.43
2023-04-09T23:08:47.275Z,1.36
2023-04-09T23:11:30.970Z,1.34
2023-04-09T23:14:20.199Z,1.31
2023-04-09T23:17:11.171Z,1.27
2023-04-09T23:19:55.077Z,1.23
2023-04-09T23:22:45.134Z,1.16
2023-04-09T23:25:28.516Z,1.11
2023-04-09T23:28:19.206Z,1.06
2023-04-09T23:31:04.025Z,1.03
2023-04-09T23:33:52.532Z,0.97
2023-04-09T23:36:42.122Z,0.94
2023-04-09T23:39:27.190Z,0.86
2023-04-09T23:42:08.574Z,0.85
2023-04-09T23:44:55.366Z,0.79
2023-04-09T23:47:42.726Z,0.78
2023-04-09T23:50:29.074Z,0.73
2023-04-09T23:53:16.312Z,0.73
2023-04-09T23:55:59.927Z,0.74
2023-04-09T23:58:49.368Z,0.71
